Time;durP1;ratioP1;P1;durP2;ratioP2;P2;SDS_P1;SDS_P2;PMS_P1;PMS_P2;Temp;Humidity;BMP_temperature;BMP_pressure;BME280_temperature;BME280_humidity;BME280_pressure;Samples;Min_cycle;Max_cycle;Signal;HPM_P1;HPM_P2
2022/02/10 00:18:00;;;;;;;50.85;18.23;;;;;;;3.82;63.33;96065.69;4920247;29;20036;-78
2022/02/10 00:20:40;;;;;;;33.33;18.00;;;;;;;3.81;64.28;96067.44;4919756;29;20067;-78
2022/02/10 00:36:27;;;;;;;100.35;51.97;;;;;;;3.53;68.29;96074.63;4908108;29;20051;-77
2022/02/10 00:39:16;;;;;;;88.18;46.17;;;;;;;3.59;68.23;96080.91;4897825;29;20028;-77
2022/02/10 00:41:42;;;;;;;87.40;44.15;;;;;;;3.68;67.40;96069.66;4915546;29;20133;-77
2022/02/10 00:44:07;;;;;;;98.97;44.47;;;;;;;3.71;67.26;96068.53;4905990;29;20040;-77
2022/02/10 00:46:33;;;;;;;92.40;45.05;;;;;;;3.71;67.17;96068.53;4922897;29;20059;-77
2022/02/10 00:48:58;;;;;;;95.70;45.70;;;;;;;3.73;66.83;96069.19;4905214;29;20043;-77
2022/02/10 00:51:24;;;;;;;113.72;48.75;;;;;;;3.75;67.30;96064.72;4905409;29;20044;-78
2022/02/10 00:53:51;;;;;;;104.60;51.83;;;;;;;3.79;67.28;96073.72;4901359;29;20044;-78
2022/02/10 00:56:16;;;;;;;94.82;46.22;;;;;;;3.79;65.49;96071.16;4911555;29;20041;-77
2022/02/10 00:58:45;;;;;;;84.15;39.78;;;;;;;3.78;66.20;96072.13;4919441;29;20064;-78
2022/02/10 01:30:28;;;;;;;92.90;46.63;;;;;;;3.16;65.11;96079.31;4913759;29;20992;-77
2022/02/10 01:32:57;;;;;;;92.47;43.47;;;;;;;3.11;65.52;96068.72;4918248;23;20043;-78
2022/02/10 01:35:23;;;;;;;134.57;66.25;;;;;;;3.00;65.57;96070.59;4944556;28;20032;-77
2022/02/10 01:37:49;;;;;;;152.65;69.22;;;;;;;3.01;65.36;96064.47;4932858;29;20054;-77
2022/02/10 01:40:30;;;;;;;137.32;66.80;;;;;;;2.94;65.40;96060.13;4926087;29;20027;-77
2022/02/10 02:04:46;;;;;;;150.27;53.40;;;;;;;2.81;66.48;96055.41;4947054;29;20043;-78
2022/02/10 02:07:11;;;;;;;132.23;59.40;;;;;;;2.78;65.60;96050.56;4946373;29;20031;-78
2022/02/10 02:09:37;;;;;;;126.95;56.78;;;;;;;2.80;65.53;96040.94;4930427;29;20031;-78
2022/02/10 02:12:06;;;;;;;122.97;51.53;;;;;;;2.76;65.41;96042.19;4945494;28;20046;-78
2022/02/10 02:14:36;;;;;;;115.07;57.58;;;;;;;2.61;65.98;96044.56;4945882;29;20098;-78
2022/02/10 02:17:03;;;;;;;112.70;54.15;;;;;;;2.72;67.15;96040.91;4929401;29;20495;-78
2022/02/10 02:19:29;;;;;;;96.82;48.28;;;;;;;2.64;67.40;96039.09;4946884;28;20041;-78
2022/02/10 02:22:04;;;;;;;83.57;43.63;;;;;;;2.69;68.31;96042.00;4930498;29;20119;-77
2022/02/10 02:24:30;;;;;;;98.90;49.03;;;;;;;2.78;67.34;96040.31;4928318;29;20571;-77
2022/02/10 02:27:04;;;;;;;110.60;48.72;;;;;;;2.80;66.59;96043.53;4943383;29;20032;-78
2022/02/10 02:29:44;;;;;;;86.00;44.20;;;;;;;2.79;67.45;96036.78;4946857;29;20095;-77
2022/02/10 02:32:22;;;;;;;89.72;46.10;;;;;;;2.72;68.09;96040.91;4945660;29;20512;-77
2022/02/10 03:07:09;;;;;;;102.68;46.00;;;;;;;2.44;66.47;96047.16;4945073;29;20062;-77
2022/02/10 03:09:40;;;;;;;82.50;43.55;;;;;;;2.38;66.19;96038.28;4931588;29;20058;-78
2022/02/10 03:12:06;;;;;;;95.23;47.17;;;;;;;2.37;66.45;96046.97;4915714;29;20414;-78
2022/02/10 03:14:36;;;;;;;92.85;49.97;;;;;;;2.39;66.21;96045.84;4948105;28;20088;-78
2022/02/10 03:22:36;;;;;;;122.55;61.65;;;;;;;2.33;65.42;96061.84;4927212;29;20038;-77
2022/02/10 04:08:26;;;;;;;167.60;85.25;;;;;;;2.08;67.07;96047.22;4923357;29;20104;-77
2022/02/10 04:11:12;;;;;;;162.95;86.25;;;;;;;2.09;66.90;96051.41;4910870;29;20040;-78
2022/02/10 04:16:19;;;;;;;180.77;91.60;;;;;;;2.08;66.15;96048.03;4907551;29;20560;-77
2022/02/10 04:26:32;;;;;;;152.98;85.50;;;;;;;1.99;65.63;96048.94;4923819;29;20051;-78
2022/02/10 05:01:08;;;;;;;286.80;124.32;;;;;;;1.98;64.86;96062.72;4924343;29;20115;-79
2022/02/10 05:07:02;;;;;;;244.75;119.28;;;;;;;1.95;64.82;96069.88;4923851;29;20039;-78
2022/02/10 05:33:47;;;;;;;157.93;87.13;;;;;;;1.85;65.14;96076.88;4921481;29;20046;-77
2022/02/10 05:36:16;;;;;;;193.80;99.22;;;;;;;1.84;65.02;96077.81;4920701;29;20156;-77
2022/02/10 05:38:48;;;;;;;214.88;102.85;;;;;;;1.87;64.99;96080.09;4905427;29;20043;-77
2022/02/10 05:44:25;;;;;;;236.30;104.50;;;;;;;1.96;64.49;96087.72;4910320;29;20134;-77
2022/02/10 08:00:34;;;;;;;46.40;23.20;;;;;;;9.77;45.63;96084.69;4924541;29;20051;-79
2022/02/10 09:08:15;;;;;;;34.58;18.70;;;;;;;10.18;46.96;96080.19;4922228;29;20571;-78
2022/02/10 09:18:39;;;;;;;35.30;19.00;;;;;;;10.19;47.32;96078.38;4906072;29;20047;-77
2022/02/10 10:01:36;;;;;;;30.60;19.90;;;;;;;10.23;47.98;96038.81;4907468;29;20525;-77
2022/02/10 10:04:14;;;;;;;39.53;19.63;;;;;;;10.22;47.07;96032.03;4906760;29;20393;-77
2022/02/10 10:50:58;;;;;;;37.53;22.33;;;;;;;10.46;47.86;95964.84;4921457;29;20036;-77
2022/02/10 11:07:35;;;;;;;47.13;24.33;;;;;;;10.77;48.14;95943.34;4923954;29;20083;-77
2022/02/10 11:40:57;;;;;;;51.00;20.08;;;;;;;10.45;48.89;95887.81;4922321;29;20735;-78
2022/02/10 14:13:40;;;;;;;96.63;42.08;;;;;;;11.88;46.04;95782.22;4921468;29;20038;-75
2022/02/10 14:16:31;;;;;;;47.33;23.23;;;;;;;11.94;46.40;95764.91;4921098;29;20621;-75
2022/02/10 14:19:07;;;;;;;99.18;39.13;;;;;;;11.94;45.85;95763.13;5039829;23;21794;-75
2022/02/10 14:21:35;;;;;;;193.70;76.53;;;;;;;11.94;45.96;95762.31;4950368;28;20085;-75
2022/02/10 14:28:54;;;;;;;244.27;104.85;;;;;;;11.99;45.75;95765.06;4961416;28;20041;-75
2022/02/10 14:31:20;;;;;;;57.45;25.52;;;;;;;11.94;45.68;95759.72;4951641;28;20030;-74
2022/02/10 14:33:46;;;;;;;44.42;20.80;;;;;;;11.96;46.10;95757.69;4935691;28;20038;-74
2022/02/10 14:36:19;;;;;;;43.70;22.40;;;;;;;12.00;45.67;95749.19;4951315;28;20033;-75
2022/02/10 16:10:49;;;;;;;63.35;35.70;;;;;;;11.01;48.96;95729.25;4941900;28;20462;-76
2022/02/10 16:18:17;;;;;;;106.60;51.25;;;;;;;10.46;50.32;95736.00;4954079;28;20074;-77
2022/02/10 16:20:59;;;;;;;97.78;45.45;;;;;;;10.39;50.82;95730.81;4969289;28;20039;-77
2022/02/10 16:23:26;;;;;;;95.10;47.08;;;;;;;10.31;50.92;95727.69;4953334;28;20043;-76
2022/02/10 16:26:08;;;;;;;92.10;44.17;;;;;;;10.22;50.85;95725.28;4937612;28;20054;-77
2022/02/10 16:28:35;;;;;;;101.78;42.47;;;;;;;10.16;50.78;95738.31;4956170;28;20050;-76
2022/02/10 16:31:01;;;;;;;95.53;42.88;;;;;;;10.05;51.43;95739.72;4938996;28;20034;-77
2022/02/10 16:33:26;;;;;;;101.30;47.95;;;;;;;10.00;51.60;95738.75;4972367;28;20422;-77
2022/02/10 16:35:54;;;;;;;104.13;45.53;;;;;;;9.93;51.74;95741.38;4972078;28;20042;-76
2022/02/10 16:38:20;;;;;;;101.55;46.53;;;;;;;9.81;52.12;95738.63;4953513;28;20035;-76
2022/02/10 16:40:45;;;;;;;98.82;47.35;;;;;;;9.72;52.08;95746.81;4970547;28;20541;-77
2022/02/10 16:43:11;;;;;;;110.85;49.13;;;;;;;9.65;51.78;95744.25;4953090;28;20035;-76
2022/02/10 16:45:37;;;;;;;125.88;52.17;;;;;;;9.55;52.26;95746.44;4970312;28;20694;-76
2022/02/10 16:48:02;;;;;;;103.15;51.42;;;;;;;9.48;52.69;95746.47;4952892;28;20029;-77
2022/02/10 16:50:28;;;;;;;117.97;54.58;;;;;;;9.39;52.71;95755.44;4970248;28;20035;-76
2022/02/10 16:53:02;;;;;;;111.55;51.28;;;;;;;9.33;52.90;95751.88;4953026;28;20031;-76
2022/02/10 16:58:10;;;;;;;168.45;82.13;;;;;;;9.14;53.73;95751.88;4969427;28;20475;-78
2022/02/10 17:03:26;;;;;;;141.65;69.25;;;;;;;9.00;53.81;95757.06;4972292;28;20038;-77
2022/02/10 17:14:33;;;;;;;128.23;53.88;;;;;;;8.71;54.42;95767.78;4978025;28;20049;-78
2022/02/10 17:25:13;;;;;;;588.40;402.45;;;;;;;8.45;55.15;95772.88;4938816;28;20067;-77
2022/02/10 17:27:54;;;;;;;565.05;393.35;;;;;;;8.30;55.24;95765.25;4951860;28;20062;-77
2022/02/10 17:35:21;;;;;;;595.03;433.55;;;;;;;8.07;56.61;95774.09;4953383;28;20521;-77
2022/02/10 17:53:38;;;;;;;615.42;451.30;;;;;;;7.55;58.70;95771.22;4970574;28;20407;-76
2022/02/10 17:56:07;;;;;;;612.53;454.70;;;;;;;7.50;58.84;95771.78;4938951;28;20043;-76
2022/02/10 17:58:32;;;;;;;510.33;350.08;;;;;;;7.48;58.15;95774.56;4969808;28;20026;-75
2022/02/10 18:00:59;;;;;;;597.70;424.17;;;;;;;7.47;58.00;95769.56;4936781;28;20411;-76
2022/02/10 18:03:26;;;;;;;626.00;440.88;;;;;;;7.48;58.93;95772.00;4930672;28;20451;-77
2022/02/10 18:08:46;;;;;;;616.25;442.60;;;;;;;7.30;58.87;95773.41;4959100;28;20130;-77
2022/02/10 18:16:27;;;;;;;626.15;462.40;;;;;;;7.17;58.94;95769.75;4976850;28;20038;-80
2022/02/10 18:29:31;;;;;;;482.65;322.33;;;;;;;6.75;59.62;95780.09;4930170;29;19923;-79
2022/02/10 19:09:48;;;;;;;510.67;347.80;;;;;;;6.21;60.99;95803.75;4916117;29;20044;-78
2022/02/10 19:12:20;;;;;;;493.77;338.00;;;;;;;6.16;61.13;95806.06;4889321;29;20126;-77
2022/02/10 19:14:52;;;;;;;478.73;320.08;;;;;;;6.05;61.52;95809.91;4884749;29;20048;-76
2022/02/10 19:17:19;;;;;;;;;;;;;;;5.97;61.52;95813.38;4885260;29;20099;-77
2022/02/10 19:19:44;;;;;;;445.17;282.65;;;;;;;5.93;61.44;95809.56;4885066;29;20401;-75
2022/02/10 19:22:10;;;;;;;473.15;304.20;;;;;;;5.90;61.51;95807.34;4915594;29;20072;-74
2022/02/10 19:24:35;;;;;;;451.73;291.38;;;;;;;5.80;61.96;95814.50;4915107;29;20039;-75
2022/02/10 19:27:01;;;;;;;369.17;215.55;;;;;;;5.82;62.89;95809.97;4898156;29;20439;-75
2022/02/10 19:29:26;;;;;;;343.83;192.15;;;;;;;5.80;63.72;95814.50;4915409;29;20032;-76
2022/02/10 19:31:53;;;;;;;459.08;279.92;;;;;;;5.83;63.16;95816.72;4915445;29;20072;-75
2022/02/10 19:34:19;;;;;;;404.30;247.48;;;;;;;5.85;64.11;95817.34;4898410;29;20035;-76
2022/02/10 19:36:44;;;;;;;453.58;288.35;;;;;;;5.86;63.10;95816.38;4882165;29;20048;-79
2022/02/10 19:39:15;;;;;;;424.77;257.25;;;;;;;5.90;63.14;95817.66;4898694;29;20481;-76
2022/02/10 19:41:43;;;;;;;460.98;301.05;;;;;;;5.88;63.11;95817.00;4897884;29;20044;-76
2022/02/10 19:44:08;;;;;;;482.58;307.45;;;;;;;5.84;63.18;95818.31;4883066;29;20056;-76
2022/02/10 19:46:34;;;;;;;480.30;309.35;;;;;;;5.85;62.82;95819.91;4898329;29;20039;-76
2022/02/10 19:49:00;;;;;;;498.35;322.13;;;;;;;5.81;62.93;95807.56;4915661;29;20119;-76
2022/02/10 19:51:26;;;;;;;493.75;315.95;;;;;;;5.76;63.17;95800.34;4914143;29;20032;-76
2022/02/10 19:53:55;;;;;;;455.77;289.23;;;;;;;5.78;63.57;95803.56;4898148;29;20691;-75
2022/02/10 19:56:21;;;;;;;481.88;307.70;;;;;;;5.75;63.69;95798.75;4896940;29;20048;-76
2022/02/10 19:58:46;;;;;;;499.75;328.25;;;;;;;5.74;62.84;95799.75;4914709;29;20032;-76
2022/02/10 20:01:12;;;;;;;515.30;338.45;;;;;;;5.73;62.75;95803.28;4882088;29;20054;-75
2022/02/10 20:03:39;;;;;;;522.67;331.95;;;;;;;5.68;62.78;95814.13;4866294;29;20120;-75
2022/02/10 20:06:05;;;;;;;508.20;335.05;;;;;;;5.62;62.59;95814.03;4897380;29;20504;-76
2022/02/10 20:08:31;;;;;;;502.33;326.55;;;;;;;5.62;62.91;95808.88;4881957;29;20028;-74
2022/02/10 20:10:56;;;;;;;479.10;307.50;;;;;;;5.58;62.96;95811.03;4897755;29;20424;-76
2022/02/10 20:13:34;;;;;;;450.33;291.50;;;;;;;5.55;63.23;95813.16;4881975;29;20067;-76
2022/02/10 20:16:07;;;;;;;540.55;362.90;;;;;;;5.54;63.14;95809.78;4897033;29;20544;-76
2022/02/10 20:18:33;;;;;;;583.60;398.83;;;;;;;5.54;63.13;95825.25;4883164;29;20070;-75
2022/02/10 20:20:59;;;;;;;607.40;416.77;;;;;;;5.53;63.45;95815.91;4881662;29;20488;-76
2022/02/10 20:23:25;;;;;;;619.50;434.35;;;;;;;5.50;62.80;95815.44;4866197;29;20040;-76
2022/02/10 20:25:51;;;;;;;600.25;413.33;;;;;;;5.47;63.50;95819.19;4881199;29;20039;-76
2022/02/10 20:28:19;;;;;;;631.72;433.35;;;;;;;5.43;62.91;95823.09;4896606;29;20032;-76
2022/02/10 20:30:45;;;;;;;588.05;400.08;;;;;;;5.36;63.90;95824.75;4897176;29;20035;-75
2022/02/10 20:33:10;;;;;;;564.22;386.48;;;;;;;5.33;62.94;95815.59;4896855;29;20036;-76
2022/02/10 20:35:38;;;;;;;573.63;406.63;;;;;;;5.29;62.59;95818.69;4897243;29;20040;-76
2022/02/10 20:38:04;;;;;;;557.67;384.73;;;;;;;5.20;63.86;95819.72;4895731;29;20123;-76
2022/02/10 20:40:32;;;;;;;532.20;351.90;;;;;;;5.18;64.47;95807.00;4896725;29;20106;-76
2022/02/10 20:43:04;;;;;;;549.60;380.98;;;;;;;5.21;64.07;95808.47;4881306;29;20063;-75
2022/02/10 20:45:29;;;;;;;521.00;355.77;;;;;;;5.17;62.92;95792.50;4897043;29;20036;-75
2022/02/10 20:47:55;;;;;;;536.70;361.83;;;;;;;5.14;63.78;95795.44;4913167;29;20066;-76
2022/02/10 20:50:20;;;;;;;558.33;368.27;;;;;;;5.12;63.87;95797.41;4911650;29;20028;-76
2022/02/10 20:52:46;;;;;;;565.65;386.60;;;;;;;5.07;63.16;95789.38;4881146;29;20044;-75
2022/02/10 20:55:11;;;;;;;592.22;392.35;;;;;;;5.07;64.34;95784.25;4896376;29;20459;-75
2022/02/10 20:57:37;;;;;;;548.83;301.33;;;;;;;5.12;65.37;95787.88;4896554;29;20044;-76
2022/02/10 21:00:08;;;;;;;525.95;335.23;;;;;;;5.09;63.68;95783.09;4880600;29;20040;-75
2022/02/10 21:02:39;;;;;;;503.65;325.90;;;;;;;5.03;63.54;95778.59;4913380;29;20526;-76
2022/02/10 21:05:20;;;;;;;424.52;228.70;;;;;;;5.04;64.21;95771.66;4897030;29;20039;-76
2022/02/10 21:07:57;;;;;;;454.42;256.38;;;;;;;5.02;63.90;95771.03;4898324;29;20469;-76
2022/02/10 21:10:24;;;;;;;444.17;249.63;;;;;;;5.00;63.45;95775.56;4882244;29;20059;-75
2022/02/10 21:12:49;;;;;;;437.58;253.55;;;;;;;4.96;63.62;95774.31;4912190;29;20397;-76
2022/02/10 21:15:19;;;;;;;478.35;285.80;;;;;;;4.95;63.79;95770.94;4881292;29;20043;-76
2022/02/10 21:17:45;;;;;;;509.02;308.13;;;;;;;4.87;63.82;95765.03;4896225;29;20032;-76
2022/02/10 21:20:11;;;;;;;554.17;337.10;;;;;;;4.86;64.15;95768.59;4913554;29;20036;-76
2022/02/10 21:22:41;;;;;;;556.00;350.45;;;;;;;4.83;63.70;95762.81;4865544;29;20587;-75
2022/02/10 21:25:20;;;;;;;526.30;327.23;;;;;;;4.85;64.61;95756.69;4905490;29;20044;-75
2022/02/10 21:27:49;;;;;;;552.25;355.23;;;;;;;4.82;64.40;95761.22;4903171;29;20992;-75
2022/02/10 21:30:15;;;;;;;556.47;364.55;;;;;;;4.74;63.81;95763.88;4911474;29;20032;-75
2022/02/10 21:32:56;;;;;;;548.97;335.02;;;;;;;4.72;64.71;95755.50;4881579;29;20039;-76
2022/02/10 21:37:57;;;;;;;575.08;345.17;;;;;;;4.71;64.44;95743.56;4896557;29;20044;-76
2022/02/10 22:19:09;;;;;;;379.23;182.15;;;;;;;4.10;63.84;95745.25;4912537;29;20092;-75
2022/02/10 22:21:37;;;;;;;392.25;188.32;;;;;;;4.06;65.22;95748.31;4915951;29;20052;-75
2022/02/10 22:24:11;;;;;;;391.65;190.55;;;;;;;4.03;65.60;95743.50;4884890;29;20044;-76
2022/02/10 22:26:39;;;;;;;389.17;182.82;;;;;;;4.03;65.12;95736.59;4914744;29;20044;-75
2022/02/10 22:29:13;;;;;;;371.58;191.27;;;;;;;4.08;65.96;95743.81;4899260;29;20036;-75
2022/02/10 22:36:42;;;;;;;378.25;194.32;;;;;;;3.95;65.93;95746.94;4915510;29;20051;-76
2022/02/10 22:39:08;;;;;;;362.33;171.35;;;;;;;3.93;64.74;95738.59;4883175;29;20150;-75
2022/02/10 22:41:33;;;;;;;346.67;164.10;;;;;;;3.90;65.38;95731.19;4883549;29;20485;-76
2022/02/10 22:44:00;;;;;;;294.25;144.50;;;;;;;3.90;65.65;95729.44;4899006;29;20510;-76
2022/02/10 22:46:26;;;;;;;322.15;154.75;;;;;;;3.88;66.12;95730.53;4899148;29;20040;-76
2022/02/10 22:48:51;;;;;;;332.30;159.35;;;;;;;3.88;65.81;95733.13;4898180;29;20618;-76
2022/02/10 22:51:22;;;;;;;336.75;170.57;;;;;;;3.90;65.83;95728.59;4898711;29;20114;-76
2022/02/10 22:53:47;;;;;;;284.30;153.70;;;;;;;3.90;66.39;95729.44;4883760;29;20036;-76
2022/02/10 22:56:15;;;;;;;325.30;166.57;;;;;;;3.80;65.82;95733.16;4883559;29;20047;-75
2022/02/10 22:58:40;;;;;;;321.17;164.68;;;;;;;3.84;66.33;95726.72;4898458;29;20079;-76
2022/02/10 23:01:07;;;;;;;312.02;157.63;;;;;;;3.81;66.59;95729.63;4882630;29;20039;-76
2022/02/10 23:03:32;;;;;;;327.77;173.05;;;;;;;3.79;66.48;95726.41;4897919;29;20060;-75
2022/02/10 23:05:57;;;;;;;354.50;172.07;;;;;;;3.74;66.13;95724.34;4898711;29;20044;-76
2022/02/10 23:08:23;;;;;;;357.52;190.32;;;;;;;3.74;65.55;95724.34;4867617;29;20044;-77
2022/02/10 23:10:50;;;;;;;334.50;178.85;;;;;;;3.72;66.28;95721.13;4915213;29;20580;-76
2022/02/10 23:13:15;;;;;;;385.98;203.32;;;;;;;3.65;65.60;95724.53;4867826;29;20107;-76
2022/02/10 23:15:40;;;;;;;384.40;202.95;;;;;;;3.66;65.21;95721.00;4915522;29;20033;-76
2022/02/10 23:18:13;;;;;;;394.90;203.13;;;;;;;3.63;65.63;95714.41;4898393;29;20508;-76
2022/02/10 23:20:38;;;;;;;379.90;202.65;;;;;;;3.66;65.96;95716.66;4898278;29;20048;-76
2022/02/10 23:23:06;;;;;;;405.85;211.48;;;;;;;3.63;66.13;95708.47;4883169;29;20092;-76
2022/02/10 23:25:32;;;;;;;386.75;202.90;;;;;;;3.65;65.80;95709.09;4898626;29;20036;-76
2022/02/10 23:27:58;;;;;;;395.48;200.88;;;;;;;3.70;65.50;95706.84;4915508;29;20040;-76
2022/02/10 23:30:24;;;;;;;366.48;188.18;;;;;;;3.69;65.32;95702.66;4881420;29;20040;-75
2022/02/10 23:32:51;;;;;;;334.05;175.18;;;;;;;3.64;66.20;95694.66;4898155;29;20080;-75
2022/02/10 23:36:04;;;;;;;330.58;170.38;;;;;;;3.61;66.12;95691.44;4915316;29;20926;-76
2022/02/10 23:38:02;;;;;;;375.23;186.75;;;;;;;3.58;65.37;95698.69;4900343;29;20047;-75
2022/02/10 23:40:29;;;;;;;377.13;190.77;;;;;;;3.60;65.13;95700.13;4898038;29;20040;-75
2022/02/10 23:42:55;;;;;;;377.20;190.07;;;;;;;3.55;65.16;95699.81;4898362;29;20575;-75
2022/02/10 23:45:25;;;;;;;467.35;237.85;;;;;;;3.55;64.93;95699.81;4915039;29;20052;-75
2022/02/10 23:47:51;;;;;;;439.42;221.57;;;;;;;3.58;64.73;95703.84;4882798;29;20127;-75
2022/02/10 23:50:21;;;;;;;425.67;211.52;;;;;;;3.54;65.11;95703.34;4914845;29;20492;-75
2022/02/10 23:52:51;;;;;;;399.27;194.07;;;;;;;3.53;65.32;95709.47;4883796;29;20040;-75
2022/02/10 23:55:22;;;;;;;381.67;190.10;;;;;;;3.52;64.93;95700.16;4898075;29;20047;-76
